createdAt,value
2017-05-08T00:00:25.046Z,1011.29
2017-05-08T00:01:25.021Z,1011.32
2017-05-08T00:02:24.998Z,1011.32
2017-05-08T00:03:24.975Z,1011.35
2017-05-08T00:04:24.952Z,1011.34
2017-05-08T00:05:24.929Z,1011.34
2017-05-08T00:06:24.908Z,1011.36
2017-05-08T00:07:24.883Z,1011.36
2017-05-08T00:08:24.862Z,1011.34
2017-05-08T00:09:24.839Z,1011.38
2017-05-08T00:10:24.815Z,1011.35
2017-05-08T00:11:24.796Z,1011.32
2017-05-08T00:12:24.768Z,1011.33
2017-05-08T00:13:24.745Z,1011.36
2017-05-08T00:14:24.721Z,1011.37
2017-05-08T00:15:24.700Z,1011.4
2017-05-08T00:16:24.675Z,1011.38
2017-05-08T00:17:24.650Z,1011.41
2017-05-08T00:18:24.629Z,1011.38
2017-05-08T00:19:24.605Z,1011.37
2017-05-08T00:20:24.583Z,1011.36
2017-05-08T00:21:24.563Z,1011.36
2017-05-08T00:22:24.535Z,1011.38
2017-05-08T00:23:24.523Z,1011.41
2017-05-08T00:24:24.492Z,1011.37
2017-05-08T00:25:24.483Z,1011.35
2017-05-08T00:26:24.443Z,1011.44
2017-05-08T00:27:24.423Z,1011.36
2017-05-08T00:28:24.402Z,1011.43
2017-05-08T00:29:24.386Z,1011.38
2017-05-08T00:30:24.364Z,1011.42
2017-05-08T00:31:24.329Z,1011.43
2017-05-08T00:32:24.304Z,1011.39
2017-05-08T00:33:24.282Z,1011.45
2017-05-08T00:34:24.279Z,1011.46
2017-05-08T00:35:24.241Z,1011.42
2017-05-08T00:36:24.228Z,1011.44
2017-05-08T00:37:24.190Z,1011.38
2017-05-08T00:38:24.166Z,1011.38
2017-05-08T00:39:24.144Z,1011.41
2017-05-08T00:40:24.120Z,1011.41
2017-05-08T00:41:24.097Z,1011.39
2017-05-08T00:42:24.075Z,1011.36
2017-05-08T00:43:24.053Z,1011.38
2017-05-08T00:44:24.028Z,1011.39
2017-05-08T00:45:24.002Z,1011.35
2017-05-08T00:46:23.983Z,1011.35
2017-05-08T00:47:23.959Z,1011.39
2017-05-08T00:48:23.933Z,1011.39
2017-05-08T00:49:23.910Z,1011.4
2017-05-08T00:50:23.890Z,1011.37
2017-05-08T00:51:23.863Z,1011.4
2017-05-08T00:52:23.845Z,1011.37
2017-05-08T00:53:23.817Z,1011.4
2017-05-08T00:54:23.798Z,1011.38
2017-05-08T00:55:23.772Z,1011.38
2017-05-08T00:56:23.749Z,1011.39
2017-05-08T00:57:23.724Z,1011.4
2017-05-08T00:58:23.703Z,1011.43
2017-05-08T00:59:23.680Z,1011.4
2017-05-08T01:00:23.656Z,1011.36
2017-05-08T01:01:23.633Z,1011.4
2017-05-08T01:02:23.608Z,1011.39
2017-05-08T01:03:23.586Z,1011.38
2017-05-08T01:04:23.565Z,1011.36
2017-05-08T01:05:23.542Z,1011.44
2017-05-08T01:06:23.517Z,1011.4
2017-05-08T01:07:23.493Z,1011.42
2017-05-08T01:08:23.474Z,1011.37
2017-05-08T01:09:23.445Z,1011.36
2017-05-08T01:10:23.423Z,1011.4
2017-05-08T01:11:23.402Z,1011.37
2017-05-08T01:12:23.377Z,1011.41
2017-05-08T01:13:23.355Z,1011.35
2017-05-08T01:14:23.330Z,1011.41
2017-05-08T01:15:23.311Z,1011.42
2017-05-08T01:16:23.284Z,1011.4
2017-05-08T01:17:23.260Z,1011.42
2017-05-08T01:18:23.288Z,1011.4
2017-05-08T01:19:23.213Z,1011.38
2017-05-08T01:20:23.192Z,1011.4
2017-05-08T01:21:23.169Z,1011.38
2017-05-08T01:22:23.145Z,1011.39
2017-05-08T01:23:23.120Z,1011.37
2017-05-08T01:24:23.101Z,1011.38
2017-05-08T01:25:23.074Z,1011.39
2017-05-08T01:26:23.054Z,1011.38
2017-05-08T01:27:23.032Z,1011.35
2017-05-08T01:28:23.008Z,1011.35
2017-05-08T01:29:22.982Z,1011.33
2017-05-08T01:30:22.959Z,1011.33
2017-05-08T01:31:22.936Z,1011.35
2017-05-08T01:32:22.942Z,1011.3
2017-05-08T01:33:22.888Z,1011.33
2017-05-08T01:34:22.867Z,1011.28
2017-05-08T01:35:22.841Z,1011.28
2017-05-08T01:36:22.820Z,1011.32
2017-05-08T01:37:22.797Z,1011.31
2017-05-08T01:38:22.773Z,1011.28
2017-05-08T01:39:22.748Z,1011.31
2017-05-08T01:40:22.729Z,1011.27
2017-05-08T01:41:22.704Z,1011.3
2017-05-08T01:42:22.711Z,1011.28
2017-05-08T01:43:22.654Z,1011.25
2017-05-08T01:44:22.634Z,1011.34
2017-05-08T01:45:22.609Z,1011.29
2017-05-08T01:46:22.586Z,1011.27
2017-05-08T01:47:22.562Z,1011.27
2017-05-08T01:48:22.538Z,1011.24
2017-05-08T01:49:22.518Z,1011.21
2017-05-08T01:50:22.495Z,1011.25
2017-05-08T01:51:22.466Z,1011.23
2017-05-08T01:52:22.446Z,1011.21
2017-05-08T01:53:22.422Z,1011.23
2017-05-08T01:54:22.400Z,1011.23
2017-05-08T01:55:22.377Z,1011.27
2017-05-08T01:56:22.354Z,1011.26
2017-05-08T01:57:22.330Z,1011.27
2017-05-08T01:58:22.308Z,1011.33
2017-05-08T01:59:22.284Z,1011.27
2017-05-08T02:00:22.261Z,1011.24
2017-05-08T02:01:22.235Z,1011.26
2017-05-08T02:02:22.215Z,1011.27
2017-05-08T02:03:22.190Z,1011.3
2017-05-08T02:04:22.165Z,1011.31
2017-05-08T02:05:22.143Z,1011.34
2017-05-08T02:06:22.122Z,1011.33
2017-05-08T02:07:22.097Z,1011.3
2017-05-08T02:08:22.075Z,1011.29
2017-05-08T02:09:22.048Z,1011.3
2017-05-08T02:10:22.080Z,1011.3
2017-05-08T02:11:22.007Z,1011.29
2017-05-08T02:12:21.980Z,1011.31
2017-05-08T02:13:21.957Z,1011.31
2017-05-08T02:14:21.933Z,1011.31
2017-05-08T02:15:21.911Z,1011.29
2017-05-08T02:16:21.887Z,1011.29
2017-05-08T02:17:21.864Z,1011.31
2017-05-08T02:18:21.842Z,1011.26
2017-05-08T02:19:21.816Z,1011.28
2017-05-08T02:20:21.798Z,1011.29
2017-05-08T02:21:21.771Z,1011.3
2017-05-08T02:22:21.751Z,1011.32
2017-05-08T02:23:21.725Z,1011.28
2017-05-08T02:24:21.701Z,1011.31
2017-05-08T02:25:21.680Z,1011.28
2017-05-08T02:26:21.655Z,1011.25
2017-05-08T02:27:21.682Z,1011.22
2017-05-08T02:28:21.609Z,1011.19
2017-05-08T02:29:21.588Z,1011.24
2017-05-08T02:30:21.565Z,1011.25
2017-05-08T02:31:21.540Z,1011.27
2017-05-08T02:32:21.516Z,1011.28
2017-05-08T02:33:21.498Z,1011.23
2017-05-08T02:34:21.477Z,1011.28
2017-05-08T02:35:21.446Z,1011.23
2017-05-08T02:36:21.435Z,1011.25
2017-05-08T02:37:21.400Z,1011.22
2017-05-08T02:38:21.377Z,1011.25
2017-05-08T02:39:21.354Z,1011.23
2017-05-08T02:40:21.330Z,1011.25
2017-05-08T02:41:21.308Z,1011.28
2017-05-08T02:42:21.284Z,1011.27
2017-05-08T02:43:21.261Z,1011.31
2017-05-08T02:44:21.242Z,1011.27
2017-05-08T02:45:21.214Z,1011.3
2017-05-08T02:46:21.191Z,1011.29
2017-05-08T02:47:21.168Z,1011.27
2017-05-08T02:48:21.143Z,1011.24
2017-05-08T02:49:21.125Z,1011.25
2017-05-08T02:50:21.102Z,1011.25
2017-05-08T02:51:21.075Z,1011.29
2017-05-08T02:52:21.052Z,1011.27
2017-05-08T02:53:21.030Z,1011.24
2017-05-08T02:54:21.056Z,1011.28
2017-05-08T02:55:20.984Z,1011.3
2017-05-08T02:56:20.961Z,1011.25
2017-05-08T02:57:20.936Z,1011.25
2017-05-08T02:58:20.916Z,1011.26
2017-05-08T02:59:20.891Z,1011.26
2017-05-08T03:00:20.868Z,1011.28
2017-05-08T03:01:20.846Z,1011.26
2017-05-08T03:02:20.873Z,1011.25
2017-05-08T03:03:20.798Z,1011.25
2017-05-08T03:04:20.781Z,1011.25
2017-05-08T03:05:20.754Z,1011.22
2017-05-08T03:06:20.731Z,1011.23
2017-05-08T03:07:20.712Z,1011.25
2017-05-08T03:08:20.684Z,1011.24
2017-05-08T03:09:20.659Z,1011.26
2017-05-08T03:10:20.638Z,1011.27
2017-05-08T03:11:20.616Z,1011.17
2017-05-08T03:12:20.591Z,1011.18
2017-05-08T03:13:20.569Z,1011.18
2017-05-08T03:14:20.547Z,1011.18
2017-05-08T03:15:20.523Z,1011.22
2017-05-08T03:16:20.500Z,1011.21
2017-05-08T03:17:20.475Z,1011.2
2017-05-08T03:18:20.453Z,1011.24
2017-05-08T03:19:20.436Z,1011.26
2017-05-08T03:20:20.407Z,1011.25
2017-05-08T03:21:20.385Z,1011.25
2017-05-08T03:22:20.361Z,1011.23
2017-05-08T03:23:20.338Z,1011.2
2017-05-08T03:24:20.318Z,1011.2
2017-05-08T03:25:20.291Z,1011.27
2017-05-08T03:26:20.272Z,1011.22
2017-05-08T03:27:20.247Z,1011.28
2017-05-08T03:28:20.222Z,1011.19
2017-05-08T03:29:20.200Z,1011.24
2017-05-08T03:30:20.177Z,1011.23
2017-05-08T03:31:20.154Z,1011.2
2017-05-08T03:32:20.135Z,1011.27
2017-05-08T03:33:20.108Z,1011.27
2017-05-08T03:34:20.087Z,1011.34
2017-05-08T03:35:20.062Z,1011.24
2017-05-08T03:36:20.038Z,1011.24
2017-05-08T03:37:20.017Z,1011.3
2017-05-08T03:38:19.993Z,1011.24
2017-05-08T03:39:19.974Z,1011.3
2017-05-08T03:40:19.948Z,1011.31
2017-05-08T03:41:19.921Z,1011.27
2017-05-08T03:42:19.906Z,1011.23
2017-05-08T03:43:19.880Z,1011.25
2017-05-08T03:44:19.856Z,1011.32
2017-05-08T03:45:19.833Z,1011.29
2017-05-08T03:46:19.810Z,1011.28
2017-05-08T03:47:19.792Z,1011.27
2017-05-08T03:48:19.765Z,1011.31
2017-05-08T03:49:19.741Z,1011.28
2017-05-08T03:50:19.716Z,1011.32
2017-05-08T03:51:19.692Z,1011.32
2017-05-08T03:52:19.922Z,1011.32
2017-05-08T03:53:19.654Z,1011.32
2017-05-08T03:54:19.626Z,1011.35
2017-05-08T03:55:19.603Z,1011.33
2017-05-08T03:56:19.581Z,1011.3
2017-05-08T03:57:19.556Z,1011.32
2017-05-08T03:58:19.533Z,1011.34
2017-05-08T03:59:19.509Z,1011.33
2017-05-08T04:00:19.489Z,1011.35
2017-05-08T04:01:19.464Z,1011.29
2017-05-08T04:02:19.442Z,1011.32
2017-05-08T04:03:19.425Z,1011.33
2017-05-08T04:04:19.399Z,1011.36
2017-05-08T04:05:19.373Z,1011.34
2017-05-08T04:06:19.350Z,1011.3
2017-05-08T04:07:19.326Z,1011.25
2017-05-08T04:08:19.307Z,1011.27
2017-05-08T04:09:19.280Z,1011.27
2017-05-08T04:10:19.263Z,1011.26
2017-05-08T04:11:19.236Z,1011.25
2017-05-08T04:12:19.214Z,1011.24
2017-05-08T04:13:19.192Z,1011.3
2017-05-08T04:14:19.166Z,1011.31
2017-05-08T04:15:19.143Z,1011.24
2017-05-08T04:16:19.119Z,1011.27
2017-05-08T04:17:19.097Z,1011.31
2017-05-08T04:18:19.075Z,1011.27
2017-05-08T04:19:19.052Z,1011.26
2017-05-08T04:20:19.029Z,1011.26
2017-05-08T04:21:19.006Z,1011.26
2017-05-08T04:22:18.985Z,1011.3
2017-05-08T04:23:18.969Z,1011.31
2017-05-08T04:24:18.936Z,1011.25
2017-05-08T04:25:18.912Z,1011.29
2017-05-08T04:26:18.890Z,1011.24
2017-05-08T04:27:18.863Z,1011.26
2017-05-08T04:28:18.845Z,1011.26
2017-05-08T04:29:18.825Z,1011.27
2017-05-08T04:30:18.799Z,1011.24
2017-05-08T04:31:18.776Z,1011.27
2017-05-08T04:32:18.754Z,1011.26
2017-05-08T04:33:18.731Z,1011.26
2017-05-08T04:34:18.708Z,1011.3
2017-05-08T04:35:18.686Z,1011.25
2017-05-08T04:36:18.665Z,1011.3
2017-05-08T04:37:18.638Z,1011.28
2017-05-08T04:38:18.615Z,1011.32
2017-05-08T04:39:18.591Z,1011.33
2017-05-08T04:40:18.569Z,1011.31
2017-05-08T04:41:18.549Z,1011.35
2017-05-08T04:42:18.522Z,1011.37
2017-05-08T04:43:18.503Z,1011.4
2017-05-08T04:44:18.478Z,1011.38
2017-05-08T04:45:18.458Z,1011.44
2017-05-08T04:46:18.430Z,1011.43
2017-05-08T04:47:18.408Z,1011.42
2017-05-08T04:48:18.389Z,1011.43
2017-05-08T04:49:18.362Z,1011.46
2017-05-08T04:50:18.340Z,1011.48
2017-05-08T04:51:18.316Z,1011.51
2017-05-08T04:52:18.298Z,1011.48
2017-05-08T04:53:18.268Z,1011.45
2017-05-08T04:54:18.250Z,1011.56
2017-05-08T04:55:18.224Z,1011.5
2017-05-08T04:56:18.199Z,1011.59
2017-05-08T04:57:18.177Z,1011.62
2017-05-08T04:58:18.153Z,1011.66
2017-05-08T04:59:18.133Z,1011.6
2017-05-08T05:00:18.106Z,1011.63
2017-05-08T05:01:18.084Z,1011.63
2017-05-08T05:02:18.061Z,1011.62
2017-05-08T05:03:18.040Z,1011.6
2017-05-08T05:04:18.017Z,1011.61
2017-05-08T05:05:17.990Z,1011.61
2017-05-08T05:06:17.967Z,1011.6
2017-05-08T05:07:17.944Z,1011.55
2017-05-08T05:08:17.921Z,1011.59
2017-05-08T05:09:17.897Z,1011.61
2017-05-08T05:10:17.874Z,1011.66
2017-05-08T05:11:17.849Z,1011.66
2017-05-08T05:12:17.826Z,1011.64
2017-05-08T05:13:17.802Z,1011.61
2017-05-08T05:14:17.778Z,1011.66
2017-05-08T05:15:17.758Z,1011.61
2017-05-08T05:16:17.736Z,1011.66
2017-05-08T05:17:17.709Z,1011.66
2017-05-08T05:18:17.684Z,1011.62
2017-05-08T05:19:17.661Z,1011.66
2017-05-08T05:20:17.888Z,1011.69
2017-05-08T05:21:17.612Z,1011.7
2017-05-08T05:22:17.589Z,1011.69
2017-05-08T05:23:17.565Z,1011.69
2017-05-08T05:24:17.543Z,1011.64
2017-05-08T05:25:17.518Z,1011.67
2017-05-08T05:26:17.501Z,1011.66
2017-05-08T05:27:17.474Z,1011.66
2017-05-08T05:28:17.447Z,1011.66
2017-05-08T05:29:17.423Z,1011.66
2017-05-08T05:30:17.402Z,1011.65
2017-05-08T05:31:17.377Z,1011.64
2017-05-08T05:32:17.351Z,1011.66
2017-05-08T05:33:17.331Z,1011.67
2017-05-08T05:34:17.310Z,1011.68
2017-05-08T05:35:17.286Z,1011.71
2017-05-08T05:36:17.257Z,1011.68
2017-05-08T05:37:17.235Z,1011.7
2017-05-08T05:38:17.213Z,1011.69
2017-05-08T05:39:17.189Z,1011.7
2017-05-08T05:40:17.162Z,1011.75
2017-05-08T05:41:17.189Z,1011.69
2017-05-08T05:42:17.116Z,1011.77
2017-05-08T05:43:17.143Z,1011.73
2017-05-08T05:44:17.068Z,1011.73
2017-05-08T05:45:17.043Z,1011.74
2017-05-08T05:46:17.021Z,1011.73
2017-05-08T05:47:16.996Z,1011.73
2017-05-08T05:48:16.977Z,1011.77
2017-05-08T05:49:16.951Z,1011.71
2017-05-08T05:50:16.927Z,1011.74
2017-05-08T05:51:16.904Z,1011.68
2017-05-08T05:52:16.878Z,1011.68
2017-05-08T05:53:16.855Z,1011.69
2017-05-08T05:54:16.834Z,1011.69
2017-05-08T05:55:16.809Z,1011.72
2017-05-08T05:56:16.790Z,1011.72
2017-05-08T05:57:16.760Z,1011.7
2017-05-08T05:58:16.741Z,1011.74
2017-05-08T05:59:16.719Z,1011.75
2017-05-08T06:00:16.690Z,1011.79
2017-05-08T06:01:16.666Z,1011.71
2017-05-08T06:02:16.642Z,1011.77
2017-05-08T06:03:16.619Z,1011.8
2017-05-08T06:04:16.597Z,1011.79
2017-05-08T06:05:16.623Z,1011.82
2017-05-08T06:06:16.549Z,1011.77
2017-05-08T06:07:16.526Z,1011.79
2017-05-08T06:08:16.503Z,1011.79
2017-05-08T06:09:16.478Z,1011.78
2017-05-08T06:10:16.455Z,1011.79
2017-05-08T06:11:16.430Z,1011.82
2017-05-08T06:12:16.407Z,1011.8
2017-05-08T06:13:16.408Z,1011.87
2017-05-08T06:14:16.363Z,1011.84
2017-05-08T06:15:16.339Z,1011.84
2017-05-08T06:16:16.313Z,1011.85
2017-05-08T06:17:16.291Z,1011.83
2017-05-08T06:18:16.270Z,1011.84
2017-05-08T06:19:16.244Z,1011.83
2017-05-08T06:20:16.219Z,1011.8
2017-05-08T06:21:16.198Z,1011.87
2017-05-08T06:22:16.174Z,1011.82
2017-05-08T06:23:16.149Z,1011.82
2017-05-08T06:24:16.126Z,1011.85
2017-05-08T06:25:16.103Z,1011.83
2017-05-08T06:26:16.084Z,1011.88
2017-05-08T06:27:16.060Z,1011.85
2017-05-08T06:28:16.031Z,1011.86
2017-05-08T06:29:16.010Z,1011.85
2017-05-08T06:30:15.991Z,1011.88
2017-05-08T06:31:15.961Z,1011.87
2017-05-08T06:32:15.940Z,1011.89
2017-05-08T06:33:15.915Z,1011.88
2017-05-08T06:34:15.893Z,1011.89
2017-05-08T06:35:15.866Z,1011.87
2017-05-08T06:36:15.847Z,1011.9
2017-05-08T06:37:15.822Z,1011.89
2017-05-08T06:38:15.794Z,1011.88
2017-05-08T06:39:15.775Z,1011.9
2017-05-08T06:40:15.752Z,1011.92
2017-05-08T06:41:15.731Z,1011.92
2017-05-08T06:42:15.706Z,1011.93
2017-05-08T06:43:15.681Z,1012
2017-05-08T06:44:15.656Z,1011.93
2017-05-08T06:45:15.642Z,1011.96
2017-05-08T06:46:15.613Z,1011.97
2017-05-08T06:47:15.589Z,1012
2017-05-08T06:48:15.567Z,1011.99
2017-05-08T06:49:15.541Z,1011.99
2017-05-08T06:50:15.515Z,1011.98
2017-05-08T06:51:15.495Z,1011.97
2017-05-08T06:52:15.474Z,1012.02
2017-05-08T06:53:15.447Z,1012.03
2017-05-08T06:54:15.425Z,1012.04
2017-05-08T06:55:15.402Z,1011.98
2017-05-08T06:56:15.378Z,1012.04
2017-05-08T06:57:15.356Z,1012.1
2017-05-08T06:58:15.333Z,1012.06
2017-05-08T06:59:15.307Z,1012.09
2017-05-08T07:00:15.286Z,1012.07
2017-05-08T07:01:15.263Z,1012.09
2017-05-08T07:02:15.239Z,1012.11
2017-05-08T07:03:15.217Z,1012.06
2017-05-08T07:04:15.243Z,1012.1
2017-05-08T07:05:15.171Z,1012.12
2017-05-08T07:06:15.145Z,1012.14
2017-05-08T07:07:15.124Z,1012.16
2017-05-08T07:08:15.100Z,1012.09
2017-05-08T07:09:15.079Z,1012.11
2017-05-08T07:10:15.055Z,1012.1
2017-05-08T07:11:15.032Z,1012.11
2017-05-08T07:12:15.016Z,1012.09
2017-05-08T07:13:14.984Z,1012.1
2017-05-08T07:14:14.960Z,1012.13
2017-05-08T07:15:14.938Z,1012.09
2017-05-08T07:16:14.937Z,1012.11
2017-05-08T07:17:14.892Z,1012.09
2017-05-08T07:18:14.872Z,1012.07
2017-05-08T07:19:14.846Z,1012.03
2017-05-08T07:20:14.833Z,1012.06
2017-05-08T07:21:14.799Z,1012.05
2017-05-08T07:22:14.776Z,1012.04
2017-05-08T07:23:14.756Z,1012.05
2017-05-08T07:24:14.730Z,1012.06
2017-05-08T07:25:14.708Z,1012.07
2017-05-08T07:26:14.683Z,1012.12
2017-05-08T07:27:14.661Z,1012.11
2017-05-08T07:28:14.637Z,1012.11
2017-05-08T07:29:14.620Z,1012.1
2017-05-08T07:30:14.590Z,1012.14
2017-05-08T07:31:14.568Z,1012.16
2017-05-08T07:32:14.546Z,1012.16
2017-05-08T07:33:14.524Z,1012.12
2017-05-08T07:34:14.498Z,1012.1
2017-05-08T07:35:14.476Z,1012.15
2017-05-08T07:36:14.455Z,1012.11
2017-05-08T07:37:14.433Z,1012.2
2017-05-08T07:38:14.406Z,1012.14
2017-05-08T07:39:14.386Z,1012.19
2017-05-08T07:40:14.361Z,1012.2
2017-05-08T07:41:14.341Z,1012.15
2017-05-08T07:42:14.320Z,1012.25
2017-05-08T07:43:14.301Z,1012.21
2017-05-08T07:44:14.272Z,1012.22
2017-05-08T07:45:14.249Z,1012.24
2017-05-08T07:46:14.226Z,1012.22
2017-05-08T07:47:14.201Z,1012.29
2017-05-08T07:48:14.180Z,1012.25
2017-05-08T07:49:14.157Z,1012.3
2017-05-08T07:50:14.136Z,1012.3
2017-05-08T07:51:14.111Z,1012.27
2017-05-08T07:52:14.088Z,1012.26
2017-05-08T07:53:14.066Z,1012.34
2017-05-08T07:54:14.045Z,1012.28
2017-05-08T07:55:14.022Z,1012.27
2017-05-08T07:56:13.999Z,1012.25
2017-05-08T07:57:13.975Z,1012.31
2017-05-08T07:58:13.952Z,1012.3
2017-05-08T07:59:13.929Z,1012.3
2017-05-08T08:00:13.907Z,1012.33
2017-05-08T08:01:13.890Z,1012.35
2017-05-08T08:02:13.858Z,1012.4
2017-05-08T08:03:13.838Z,1012.32
2017-05-08T08:04:13.816Z,1012.28
2017-05-08T08:05:13.792Z,1012.33
2017-05-08T08:06:13.770Z,1012.33
2017-05-08T08:07:13.747Z,1012.34
2017-05-08T08:08:13.725Z,1012.4
2017-05-08T08:09:13.702Z,1012.36
2017-05-08T08:10:13.679Z,1012.35
2017-05-08T08:11:13.655Z,1012.31
2017-05-08T08:12:13.637Z,1012.35
2017-05-08T08:13:13.611Z,1012.31
2017-05-08T08:14:13.588Z,1012.33
2017-05-08T08:15:13.567Z,1012.38
2017-05-08T08:16:13.547Z,1012.32
2017-05-08T08:17:13.529Z,1012.38
2017-05-08T08:18:13.499Z,1012.37
2017-05-08T08:19:13.476Z,1012.35
2017-05-08T08:20:13.453Z,1012.38
2017-05-08T08:21:13.431Z,1012.39
2017-05-08T08:22:13.408Z,1012.39
2017-05-08T08:23:13.387Z,1012.36
2017-05-08T08:24:13.364Z,1012.37
2017-05-08T08:25:13.343Z,1012.4
2017-05-08T08:26:13.319Z,1012.41
2017-05-08T08:27:13.295Z,1012.43
2017-05-08T08:28:13.272Z,1012.41
2017-05-08T08:29:13.252Z,1012.38
2017-05-08T08:30:13.229Z,1012.39
2017-05-08T08:31:13.210Z,1012.4
2017-05-08T08:32:13.334Z,1012.43
2017-05-08T08:33:13.164Z,1012.42
2017-05-08T08:34:13.139Z,1012.37
2017-05-08T08:35:13.119Z,1012.41
2017-05-08T08:36:13.095Z,1012.4
2017-05-08T08:37:13.071Z,1012.5
2017-05-08T08:38:13.050Z,1012.44
2017-05-08T08:39:13.027Z,1012.45
2017-05-08T08:40:13.007Z,1012.45
2017-05-08T08:41:12.982Z,1012.43
2017-05-08T08:42:12.962Z,1012.46
2017-05-08T08:43:12.937Z,1012.5
2017-05-08T08:44:12.915Z,1012.5
2017-05-08T08:45:12.893Z,1012.48
2017-05-08T08:46:12.870Z,1012.49
2017-05-08T08:47:12.850Z,1012.56
2017-05-08T08:48:12.826Z,1012.54
2017-05-08T08:49:12.802Z,1012.54
2017-05-08T08:50:12.779Z,1012.56
2017-05-08T08:51:12.759Z,1012.53
2017-05-08T08:52:12.733Z,1012.58
2017-05-08T08:53:12.713Z,1012.5
2017-05-08T08:54:12.692Z,1012.53
2017-05-08T08:55:12.667Z,1012.59
2017-05-08T08:56:12.646Z,1012.59
2017-05-08T08:57:12.623Z,1012.64
2017-05-08T08:58:12.601Z,1012.6
2017-05-08T08:59:12.580Z,1012.63
2017-05-08T09:00:12.555Z,1012.63
2017-05-08T09:01:12.534Z,1012.65
2017-05-08T09:02:12.513Z,1012.67
2017-05-08T09:03:12.491Z,1012.6
2017-05-08T09:04:12.468Z,1012.67
2017-05-08T09:05:12.445Z,1012.66
2017-05-08T09:06:12.421Z,1012.66
2017-05-08T09:07:12.399Z,1012.64
2017-05-08T09:08:12.380Z,1012.64
2017-05-08T09:09:12.354Z,1012.68
2017-05-08T09:10:12.331Z,1012.69
2017-05-08T09:11:12.558Z,1012.71
2017-05-08T09:12:12.290Z,1012.74
2017-05-08T09:13:12.263Z,1012.75
2017-05-08T09:14:12.240Z,1012.75
2017-05-08T09:15:12.221Z,1012.74
2017-05-08T09:16:12.199Z,1012.78
2017-05-08T09:17:12.175Z,1012.8
2017-05-08T09:18:12.154Z,1012.77
2017-05-08T09:19:12.129Z,1012.8
2017-05-08T09:20:12.108Z,1012.76
2017-05-08T09:21:12.084Z,1012.79
2017-05-08T09:22:12.062Z,1012.82
2017-05-08T09:23:12.040Z,1012.83
2017-05-08T09:24:12.027Z,1012.82
2017-05-08T09:25:11.993Z,1012.82
2017-05-08T09:26:11.970Z,1012.85
2017-05-08T09:27:11.949Z,1012.8
2017-05-08T09:28:11.926Z,1012.88
2017-05-08T09:29:11.905Z,1012.82
2017-05-08T09:30:11.882Z,1012.85
2017-05-08T09:31:11.858Z,1012.86
2017-05-08T09:32:11.842Z,1012.87
2017-05-08T09:33:11.814Z,1012.9
2017-05-08T09:34:11.792Z,1012.83
2017-05-08T09:35:11.770Z,1012.9
2017-05-08T09:36:11.747Z,1012.87
2017-05-08T09:37:11.724Z,1012.87
2017-05-08T09:38:11.705Z,1012.89
2017-05-08T09:39:11.682Z,1012.9
2017-05-08T09:40:11.656Z,1012.97
2017-05-08T09:41:11.638Z,1012.93
2017-05-08T09:42:11.612Z,1012.96
2017-05-08T09:43:11.596Z,1012.99
2017-05-08T09:44:11.565Z,1012.99
2017-05-08T09:45:11.546Z,1013
2017-05-08T09:46:11.522Z,1013.03
2017-05-08T09:47:11.501Z,1013.02
2017-05-08T09:48:11.474Z,1013.01
2017-05-08T09:49:11.455Z,1013
2017-05-08T09:50:11.432Z,1013
2017-05-08T09:51:11.414Z,1012.99
2017-05-08T09:52:11.392Z,1013
2017-05-08T09:53:11.363Z,1013.02
2017-05-08T09:54:11.343Z,1012.98
2017-05-08T09:55:11.321Z,1012.95
2017-05-08T09:56:11.298Z,1012.99
2017-05-08T09:57:11.277Z,1013.03
2017-05-08T09:58:11.264Z,1013.01
2017-05-08T09:59:11.231Z,1013.03
2017-05-08T10:00:11.211Z,1013.04
2017-05-08T10:01:11.244Z,1013.03
2017-05-08T10:02:11.165Z,1013.1
2017-05-08T10:03:11.145Z,1013.07
2017-05-08T10:04:11.129Z,1013.05
2017-05-08T10:05:11.110Z,1013.06
2017-05-08T10:06:11.080Z,1013.09
2017-05-08T10:07:11.058Z,1013.11
2017-05-08T10:08:11.046Z,1013.08
2017-05-08T10:09:11.027Z,1013.06
2017-05-08T10:10:10.993Z,1013.09
2017-05-08T10:11:10.970Z,1013.08
2017-05-08T10:12:10.949Z,1013.08
2017-05-08T10:13:10.924Z,1013.08
2017-05-08T10:14:10.906Z,1013.11
2017-05-08T10:15:10.880Z,1013.13
2017-05-08T10:16:10.860Z,1013.07
2017-05-08T10:17:10.886Z,1013.12
2017-05-08T10:18:10.816Z,1013.18
2017-05-08T10:19:10.791Z,1013.12
2017-05-08T10:20:10.770Z,1013.13
2017-05-08T10:21:10.748Z,1013.12
2017-05-08T10:22:10.727Z,1013.09
2017-05-08T10:23:10.701Z,1013.12
2017-05-08T10:24:10.682Z,1013.11
2017-05-08T10:25:10.658Z,1013.11
2017-05-08T10:26:10.667Z,1013.15
2017-05-08T10:27:10.614Z,1013.18
2017-05-08T10:28:10.595Z,1013.12
2017-05-08T10:29:10.573Z,1013.15
2017-05-08T10:30:10.551Z,1013.14
2017-05-08T10:31:10.529Z,1013.17
2017-05-08T10:32:10.506Z,1013.17
2017-05-08T10:33:10.485Z,1013.17
2017-05-08T10:34:10.464Z,1013.21
2017-05-08T10:35:10.441Z,1013.16
2017-05-08T10:36:10.420Z,1013.16
2017-05-08T10:37:10.398Z,1013.17
2017-05-08T10:38:10.379Z,1013.17
2017-05-08T10:39:10.353Z,1013.18
2017-05-08T10:40:10.333Z,1013.18
2017-05-08T10:41:10.311Z,1013.16
2017-05-08T10:42:10.290Z,1013.17
2017-05-08T10:43:10.267Z,1013.14
2017-05-08T10:44:10.246Z,1013.09
2017-05-08T10:45:10.230Z,1013.07
2017-05-08T10:46:10.201Z,1013.06
2017-05-08T10:47:10.180Z,1013.08
2017-05-08T10:48:10.158Z,1013.12
2017-05-08T10:49:10.138Z,1013.1
2017-05-08T10:50:10.116Z,1013.14
2017-05-08T10:51:10.097Z,1013.15
2017-05-08T10:52:10.077Z,1013.15
2017-05-08T10:53:10.051Z,1013.09
2017-05-08T10:54:10.033Z,1013.1
2017-05-08T10:55:10.010Z,1013.14
2017-05-08T10:56:09.990Z,1013.11
2017-05-08T10:57:09.970Z,1013.11
2017-05-08T10:58:09.949Z,1013.09
2017-05-08T10:59:09.933Z,1013.12
2017-05-08T11:00:09.906Z,1013.09
2017-05-08T11:01:09.891Z,1013.08
2017-05-08T11:02:09.862Z,1013.06
2017-05-08T11:03:09.845Z,1013.08
2017-05-08T11:04:09.822Z,1013.11
2017-05-08T11:05:09.804Z,1013.06
2017-05-08T11:06:09.780Z,1013.09
2017-05-08T11:07:09.762Z,1013.09
2017-05-08T11:08:09.742Z,1013.12
2017-05-08T11:09:09.769Z,1013.13
2017-05-08T11:10:09.699Z,1013.17
2017-05-08T11:11:09.676Z,1013.16
2017-05-08T11:12:09.655Z,1013.18
2017-05-08T11:13:09.634Z,1013.18
2017-05-08T11:14:09.613Z,1013.19
2017-05-08T11:15:09.596Z,1013.24
2017-05-08T11:16:09.570Z,1013.25
2017-05-08T11:17:09.550Z,1013.3
2017-05-08T11:18:09.537Z,1013.32
2017-05-08T11:19:09.508Z,1013.25
2017-05-08T11:20:09.486Z,1013.3
2017-05-08T11:21:09.461Z,1013.26
2017-05-08T11:22:09.441Z,1013.32
2017-05-08T11:23:09.422Z,1013.27
2017-05-08T11:24:09.398Z,1013.31
2017-05-08T11:25:09.377Z,1013.29
2017-05-08T11:26:09.356Z,1013.28
2017-05-08T11:27:09.336Z,1013.33
2017-05-08T11:28:09.313Z,1013.36
2017-05-08T11:29:09.295Z,1013.35
2017-05-08T11:30:09.269Z,1013.38
2017-05-08T11:31:09.247Z,1013.33
2017-05-08T11:32:09.227Z,1013.36
2017-05-08T11:33:09.204Z,1013.44
2017-05-08T11:34:09.182Z,1013.41
2017-05-08T11:35:09.158Z,1013.42
2017-05-08T11:36:09.136Z,1013.41
2017-05-08T11:37:09.115Z,1013.42
2017-05-08T11:38:09.091Z,1013.37
2017-05-08T11:39:09.071Z,1013.41
2017-05-08T11:40:09.048Z,1013.44
2017-05-08T11:41:09.028Z,1013.48
2017-05-08T11:42:09.005Z,1013.46
2017-05-08T11:43:08.987Z,1013.46
2017-05-08T11:44:08.960Z,1013.45
2017-05-08T11:45:08.939Z,1013.48
2017-05-08T11:46:08.916Z,1013.57
2017-05-08T11:47:08.895Z,1013.48
2017-05-08T11:48:08.873Z,1013.47
2017-05-08T11:49:08.850Z,1013.46
2017-05-08T11:50:08.829Z,1013.5
2017-05-08T11:51:08.810Z,1013.52
2017-05-08T11:52:08.784Z,1013.54
2017-05-08T11:53:08.762Z,1013.5
2017-05-08T11:54:08.741Z,1013.55
2017-05-08T11:55:08.715Z,1013.54
2017-05-08T11:56:08.696Z,1013.52
2017-05-08T11:57:08.674Z,1013.55
2017-05-08T11:58:08.652Z,1013.51
2017-05-08T11:59:08.631Z,1013.54
2017-05-08T12:00:08.608Z,1013.53
2017-05-08T12:01:08.614Z,1013.55
2017-05-08T12:02:08.569Z,1013.56
2017-05-08T12:03:08.540Z,1013.58
2017-05-08T12:04:08.517Z,1013.54
2017-05-08T12:05:08.499Z,1013.57
2017-05-08T12:06:08.476Z,1013.57
2017-05-08T12:07:08.454Z,1013.62
2017-05-08T12:08:08.432Z,1013.56